sensor_id;sensor_type;location;lat;lon;timestamp;P1;durP1;ratioP1;P2;durP2;ratioP2
22829;SDS011;11581;51.250;6.778;2023-10-09T00:01:50;15.27;;;9.13;;
22829;SDS011;11581;51.250;6.778;2023-10-09T00:04:17;16.08;;;8.65;;
22829;SDS011;11581;51.250;6.778;2023-10-09T00:06:45;18.83;;;10.00;;
22829;SDS011;11581;51.250;6.778;2023-10-09T00:09:13;18.90;;;9.88;;
22829;SDS011;11581;51.250;6.778;2023-10-09T00:11:58;14.20;;;9.15;;
22829;SDS011;11581;51.250;6.778;2023-10-09T00:14:28;15.98;;;8.85;;
22829;SDS011;11581;51.250;6.778;2023-10-09T00:16:58;16.42;;;9.05;;
22829;SDS011;11581;51.250;6.778;2023-10-09T00:19:42;17.77;;;9.15;;
22829;SDS011;11581;51.250;6.778;2023-10-09T00:22:11;15.77;;;9.20;;
22829;SDS011;11581;51.250;6.778;2023-10-09T00:24:51;14.80;;;9.07;;
22829;SDS011;11581;51.250;6.778;2023-10-09T00:27:35;15.18;;;8.68;;
22829;SDS011;11581;51.250;6.778;2023-10-09T00:30:04;17.02;;;8.70;;
22829;SDS011;11581;51.250;6.778;2023-10-09T00:32:34;15.88;;;8.77;;
22829;SDS011;11581;51.250;6.778;2023-10-09T00:35:02;17.60;;;9.70;;
22829;SDS011;11581;51.250;6.778;2023-10-09T00:37:59;16.23;;;9.00;;
22829;SDS011;11581;51.250;6.778;2023-10-09T00:40:32;12.88;;;8.50;;
22829;SDS011;11581;51.250;6.778;2023-10-09T00:43:03;15.15;;;8.48;;
22829;SDS011;11581;51.250;6.778;2023-10-09T00:45:39;16.38;;;8.63;;
22829;SDS011;11581;51.250;6.778;2023-10-09T00:48:06;15.38;;;9.20;;
22829;SDS011;11581;51.250;6.778;2023-10-09T00:50:35;12.27;;;7.78;;
22829;SDS011;11581;51.250;6.778;2023-10-09T00:53:03;17.23;;;8.55;;
22829;SDS011;11581;51.250;6.778;2023-10-09T00:55:43;15.20;;;8.95;;
22829;SDS011;11581;51.250;6.778;2023-10-09T00:58:12;14.05;;;8.35;;
22829;SDS011;11581;51.250;6.778;2023-10-09T01:00:50;16.25;;;8.43;;
22829;SDS011;11581;51.250;6.778;2023-10-09T01:03:18;15.40;;;9.05;;
22829;SDS011;11581;51.250;6.778;2023-10-09T01:05:47;17.73;;;8.15;;
22829;SDS011;11581;51.250;6.778;2023-10-09T01:08:23;17.08;;;8.50;;
22829;SDS011;11581;51.250;6.778;2023-10-09T01:11:10;18.63;;;8.05;;
22829;SDS011;11581;51.250;6.778;2023-10-09T01:13:44;18.33;;;8.40;;
22829;SDS011;11581;51.250;6.778;2023-10-09T01:16:21;17.02;;;7.97;;
22829;SDS011;11581;51.250;6.778;2023-10-09T01:18:49;14.90;;;7.70;;
22829;SDS011;11581;51.250;6.778;2023-10-09T01:21:17;14.02;;;8.63;;
22829;SDS011;11581;51.250;6.778;2023-10-09T01:23:50;14.43;;;8.82;;
22829;SDS011;11581;51.250;6.778;2023-10-09T01:26:34;12.93;;;7.53;;
22829;SDS011;11581;51.250;6.778;2023-10-09T01:29:09;14.45;;;7.75;;
22829;SDS011;11581;51.250;6.778;2023-10-09T01:31:39;19.65;;;8.35;;
22829;SDS011;11581;51.250;6.778;2023-10-09T01:34:11;14.38;;;7.75;;
22829;SDS011;11581;51.250;6.778;2023-10-09T01:36:39;14.05;;;8.13;;
22829;SDS011;11581;51.250;6.778;2023-10-09T01:39:08;13.88;;;7.78;;
22829;SDS011;11581;51.250;6.778;2023-10-09T01:41:46;14.52;;;7.80;;
22829;SDS011;11581;51.250;6.778;2023-10-09T01:44:14;16.40;;;8.77;;
22829;SDS011;11581;51.250;6.778;2023-10-09T01:46:41;12.32;;;7.80;;
22829;SDS011;11581;51.250;6.778;2023-10-09T01:49:11;13.73;;;7.30;;
22829;SDS011;11581;51.250;6.778;2023-10-09T01:51:43;13.20;;;7.35;;
22829;SDS011;11581;51.250;6.778;2023-10-09T01:54:11;10.88;;;7.72;;
22829;SDS011;11581;51.250;6.778;2023-10-09T01:56:52;12.10;;;6.63;;
22829;SDS011;11581;51.250;6.778;2023-10-09T01:59:21;11.65;;;6.40;;
22829;SDS011;11581;51.250;6.778;2023-10-09T02:01:48;12.38;;;7.13;;
22829;SDS011;11581;51.250;6.778;2023-10-09T02:04:15;14.60;;;7.15;;
22829;SDS011;11581;51.250;6.778;2023-10-09T02:06:43;14.25;;;6.95;;
22829;SDS011;11581;51.250;6.778;2023-10-09T02:09:11;14.02;;;7.57;;
22829;SDS011;11581;51.250;6.778;2023-10-09T02:11:45;16.85;;;7.45;;
22829;SDS011;11581;51.250;6.778;2023-10-09T02:14:12;14.63;;;7.47;;
22829;SDS011;11581;51.250;6.778;2023-10-09T02:16:46;12.77;;;7.60;;
22829;SDS011;11581;51.250;6.778;2023-10-09T02:19:28;13.02;;;7.22;;
22829;SDS011;11581;51.250;6.778;2023-10-09T02:21:59;15.45;;;7.00;;
22829;SDS011;11581;51.250;6.778;2023-10-09T02:24:38;11.32;;;6.82;;
22829;SDS011;11581;51.250;6.778;2023-10-09T02:27:15;14.90;;;7.60;;
22829;SDS011;11581;51.250;6.778;2023-10-09T02:29:58;14.27;;;7.72;;
22829;SDS011;11581;51.250;6.778;2023-10-09T02:32:25;15.85;;;7.40;;
22829;SDS011;11581;51.250;6.778;2023-10-09T02:34:53;12.63;;;7.18;;
22829;SDS011;11581;51.250;6.778;2023-10-09T02:37:19;11.90;;;7.30;;
22829;SDS011;11581;51.250;6.778;2023-10-09T02:39:51;13.00;;;7.53;;
22829;SDS011;11581;51.250;6.778;2023-10-09T02:42:18;12.95;;;7.57;;
22829;SDS011;11581;51.250;6.778;2023-10-09T02:44:51;13.52;;;7.30;;
22829;SDS011;11581;51.250;6.778;2023-10-09T02:47:18;12.77;;;6.97;;
22829;SDS011;11581;51.250;6.778;2023-10-09T02:49:50;16.00;;;6.97;;
22829;SDS011;11581;51.250;6.778;2023-10-09T02:52:18;13.65;;;6.75;;
22829;SDS011;11581;51.250;6.778;2023-10-09T02:54:49;10.13;;;6.65;;
22829;SDS011;11581;51.250;6.778;2023-10-09T02:57:25;12.95;;;7.28;;
22829;SDS011;11581;51.250;6.778;2023-10-09T02:59:54;15.30;;;7.25;;
22829;SDS011;11581;51.250;6.778;2023-10-09T03:02:20;12.05;;;7.10;;
22829;SDS011;11581;51.250;6.778;2023-10-09T03:04:49;14.18;;;7.32;;
22829;SDS011;11581;51.250;6.778;2023-10-09T03:07:20;12.30;;;6.47;;
22829;SDS011;11581;51.250;6.778;2023-10-09T03:09:48;13.52;;;6.72;;
22829;SDS011;11581;51.250;6.778;2023-10-09T03:12:17;11.35;;;6.82;;
22829;SDS011;11581;51.250;6.778;2023-10-09T03:14:43;10.43;;;6.82;;
22829;SDS011;11581;51.250;6.778;2023-10-09T03:17:10;14.02;;;7.25;;
22829;SDS011;11581;51.250;6.778;2023-10-09T03:19:37;14.32;;;7.32;;
22829;SDS011;11581;51.250;6.778;2023-10-09T03:22:04;15.73;;;7.00;;
22829;SDS011;11581;51.250;6.778;2023-10-09T03:24:36;10.23;;;5.65;;
22829;SDS011;11581;51.250;6.778;2023-10-09T03:27:02;11.73;;;6.47;;
22829;SDS011;11581;51.250;6.778;2023-10-09T03:29:31;13.43;;;6.00;;
22829;SDS011;11581;51.250;6.778;2023-10-09T03:31:58;8.98;;;5.82;;
22829;SDS011;11581;51.250;6.778;2023-10-09T03:34:25;9.63;;;6.07;;
22829;SDS011;11581;51.250;6.778;2023-10-09T03:36:53;12.20;;;6.03;;
22829;SDS011;11581;51.250;6.778;2023-10-09T03:39:29;12.52;;;6.68;;
22829;SDS011;11581;51.250;6.778;2023-10-09T03:42:06;13.35;;;6.57;;
22829;SDS011;11581;51.250;6.778;2023-10-09T03:44:46;11.32;;;6.25;;
22829;SDS011;11581;51.250;6.778;2023-10-09T03:47:18;10.30;;;5.77;;
22829;SDS011;11581;51.250;6.778;2023-10-09T03:49:47;10.73;;;5.75;;
22829;SDS011;11581;51.250;6.778;2023-10-09T03:52:16;10.95;;;5.88;;
22829;SDS011;11581;51.250;6.778;2023-10-09T03:54:44;9.57;;;5.47;;
22829;SDS011;11581;51.250;6.778;2023-10-09T03:57:11;9.00;;;5.55;;
22829;SDS011;11581;51.250;6.778;2023-10-09T03:59:43;11.48;;;5.95;;
22829;SDS011;11581;51.250;6.778;2023-10-09T04:02:12;9.50;;;5.18;;
22829;SDS011;11581;51.250;6.778;2023-10-09T04:04:39;8.45;;;5.22;;
22829;SDS011;11581;51.250;6.778;2023-10-09T04:07:10;14.88;;;5.78;;
22829;SDS011;11581;51.250;6.778;2023-10-09T04:09:40;9.30;;;5.10;;
22829;SDS011;11581;51.250;6.778;2023-10-09T04:12:09;10.85;;;5.30;;
22829;SDS011;11581;51.250;6.778;2023-10-09T04:14:47;9.30;;;5.07;;
22829;SDS011;11581;51.250;6.778;2023-10-09T04:17:16;10.05;;;5.43;;
22829;SDS011;11581;51.250;6.778;2023-10-09T04:20:05;8.32;;;4.45;;
22829;SDS011;11581;51.250;6.778;2023-10-09T04:23:05;9.25;;;5.25;;
22829;SDS011;11581;51.250;6.778;2023-10-09T04:25:31;11.77;;;6.25;;
22829;SDS011;11581;51.250;6.778;2023-10-09T04:28:07;7.60;;;4.93;;
22829;SDS011;11581;51.250;6.778;2023-10-09T04:30:38;7.75;;;4.95;;
22829;SDS011;11581;51.250;6.778;2023-10-09T04:33:08;7.88;;;4.88;;
22829;SDS011;11581;51.250;6.778;2023-10-09T04:35:53;8.23;;;4.97;;
22829;SDS011;11581;51.250;6.778;2023-10-09T04:38:41;9.05;;;5.30;;
22829;SDS011;11581;51.250;6.778;2023-10-09T04:41:20;11.27;;;4.85;;
22829;SDS011;11581;51.250;6.778;2023-10-09T04:43:53;10.90;;;4.85;;
22829;SDS011;11581;51.250;6.778;2023-10-09T04:46:30;9.63;;;4.78;;
22829;SDS011;11581;51.250;6.778;2023-10-09T04:49:08;7.85;;;4.55;;
22829;SDS011;11581;51.250;6.778;2023-10-09T04:51:52;10.00;;;5.20;;
22829;SDS011;11581;51.250;6.778;2023-10-09T04:54:29;8.68;;;5.03;;
22829;SDS011;11581;51.250;6.778;2023-10-09T04:57:04;11.48;;;4.75;;
22829;SDS011;11581;51.250;6.778;2023-10-09T04:59:43;8.80;;;4.80;;
22829;SDS011;11581;51.250;6.778;2023-10-09T05:02:15;8.45;;;4.60;;
22829;SDS011;11581;51.250;6.778;2023-10-09T05:04:44;8.68;;;4.40;;
22829;SDS011;11581;51.250;6.778;2023-10-09T05:07:16;9.82;;;4.75;;
22829;SDS011;11581;51.250;6.778;2023-10-09T05:12:42;10.52;;;4.45;;
22829;SDS011;11581;51.250;6.778;2023-10-09T05:15:14;6.45;;;4.07;;
22829;SDS011;11581;51.250;6.778;2023-10-09T05:17:43;9.93;;;4.90;;
22829;SDS011;11581;51.250;6.778;2023-10-09T05:20:21;10.68;;;5.10;;
22829;SDS011;11581;51.250;6.778;2023-10-09T05:25:46;8.27;;;4.65;;
22829;SDS011;11581;51.250;6.778;2023-10-09T05:28:24;9.73;;;5.43;;
22829;SDS011;11581;51.250;6.778;2023-10-09T05:31:14;8.65;;;4.38;;
22829;SDS011;11581;51.250;6.778;2023-10-09T05:34:03;13.45;;;5.03;;
22829;SDS011;11581;51.250;6.778;2023-10-09T05:36:31;8.23;;;4.78;;
22829;SDS011;11581;51.250;6.778;2023-10-09T05:39:00;13.50;;;4.90;;
22829;SDS011;11581;51.250;6.778;2023-10-09T05:41:41;7.80;;;4.22;;
22829;SDS011;11581;51.250;6.778;2023-10-09T05:44:24;9.30;;;4.60;;
22829;SDS011;11581;51.250;6.778;2023-10-09T05:49:55;7.90;;;4.65;;
22829;SDS011;11581;51.250;6.778;2023-10-09T05:52:27;9.82;;;5.22;;
22829;SDS011;11581;51.250;6.778;2023-10-09T05:55:12;9.73;;;5.25;;
22829;SDS011;11581;51.250;6.778;2023-10-09T05:57:57;10.88;;;5.13;;
22829;SDS011;11581;51.250;6.778;2023-10-09T06:00:49;9.30;;;4.25;;
22829;SDS011;11581;51.250;6.778;2023-10-09T06:03:46;9.93;;;5.40;;
22829;SDS011;11581;51.250;6.778;2023-10-09T06:06:20;8.68;;;5.15;;
22829;SDS011;11581;51.250;6.778;2023-10-09T06:08:59;8.00;;;4.78;;
22829;SDS011;11581;51.250;6.778;2023-10-09T06:14:22;6.88;;;4.57;;
22829;SDS011;11581;51.250;6.778;2023-10-09T06:17:11;9.25;;;5.03;;
22829;SDS011;11581;51.250;6.778;2023-10-09T06:19:48;10.43;;;5.63;;
22829;SDS011;11581;51.250;6.778;2023-10-09T06:22:25;13.25;;;4.43;;
22829;SDS011;11581;51.250;6.778;2023-10-09T06:25:09;9.32;;;4.72;;
22829;SDS011;11581;51.250;6.778;2023-10-09T06:27:37;10.00;;;4.93;;
22829;SDS011;11581;51.250;6.778;2023-10-09T06:30:21;8.32;;;4.75;;
22829;SDS011;11581;51.250;6.778;2023-10-09T06:32:51;8.80;;;4.97;;
22829;SDS011;11581;51.250;6.778;2023-10-09T06:35:23;11.35;;;5.18;;
22829;SDS011;11581;51.250;6.778;2023-10-09T06:37:57;7.20;;;4.85;;
22829;SDS011;11581;51.250;6.778;2023-10-09T06:40:46;9.25;;;5.22;;
22829;SDS011;11581;51.250;6.778;2023-10-09T06:43:32;8.40;;;4.68;;
22829;SDS011;11581;51.250;6.778;2023-10-09T06:46:02;10.60;;;5.00;;
22829;SDS011;11581;51.250;6.778;2023-10-09T06:48:42;9.57;;;4.93;;
22829;SDS011;11581;51.250;6.778;2023-10-09T06:51:20;8.68;;;4.35;;
22829;SDS011;11581;51.250;6.778;2023-10-09T06:54:07;8.88;;;4.88;;
22829;SDS011;11581;51.250;6.778;2023-10-09T06:56:41;7.88;;;5.13;;
22829;SDS011;11581;51.250;6.778;2023-10-09T06:59:25;8.82;;;4.45;;
22829;SDS011;11581;51.250;6.778;2023-10-09T07:02:07;10.30;;;4.32;;
22829;SDS011;11581;51.250;6.778;2023-10-09T07:04:56;8.48;;;5.38;;
22829;SDS011;11581;51.250;6.778;2023-10-09T07:07:35;9.73;;;4.93;;
22829;SDS011;11581;51.250;6.778;2023-10-09T07:10:14;9.05;;;5.35;;
22829;SDS011;11581;51.250;6.778;2023-10-09T07:12:59;9.25;;;4.70;;
22829;SDS011;11581;51.250;6.778;2023-10-09T07:15:25;9.23;;;5.53;;
22829;SDS011;11581;51.250;6.778;2023-10-09T07:18:09;8.25;;;4.82;;
22829;SDS011;11581;51.250;6.778;2023-10-09T07:20:58;8.73;;;5.13;;
22829;SDS011;11581;51.250;6.778;2023-10-09T07:23:26;8.63;;;5.15;;
22829;SDS011;11581;51.250;6.778;2023-10-09T07:26:05;12.98;;;5.43;;
22829;SDS011;11581;51.250;6.778;2023-10-09T07:28:48;11.35;;;4.72;;
22829;SDS011;11581;51.250;6.778;2023-10-09T07:31:19;7.22;;;4.35;;
22829;SDS011;11581;51.250;6.778;2023-10-09T07:33:54;14.63;;;5.20;;
22829;SDS011;11581;51.250;6.778;2023-10-09T07:36:25;11.40;;;4.75;;
22829;SDS011;11581;51.250;6.778;2023-10-09T07:39:03;9.07;;;5.10;;
22829;SDS011;11581;51.250;6.778;2023-10-09T07:41:40;8.80;;;4.72;;
22829;SDS011;11581;51.250;6.778;2023-10-09T07:44:21;12.98;;;5.10;;
22829;SDS011;11581;51.250;6.778;2023-10-09T07:47:02;11.15;;;5.05;;
22829;SDS011;11581;51.250;6.778;2023-10-09T07:49:48;7.63;;;5.25;;
22829;SDS011;11581;51.250;6.778;2023-10-09T07:52:17;6.53;;;4.35;;
22829;SDS011;11581;51.250;6.778;2023-10-09T07:54:47;12.68;;;6.15;;
22829;SDS011;11581;51.250;6.778;2023-10-09T07:57:20;10.35;;;5.45;;
22829;SDS011;11581;51.250;6.778;2023-10-09T07:59:52;10.48;;;5.15;;
22829;SDS011;11581;51.250;6.778;2023-10-09T08:04:58;11.90;;;5.18;;
22829;SDS011;11581;51.250;6.778;2023-10-09T08:07:31;8.67;;;4.43;;
22829;SDS011;11581;51.250;6.778;2023-10-09T08:10:02;9.80;;;5.05;;
22829;SDS011;11581;51.250;6.778;2023-10-09T08:12:48;11.00;;;5.35;;
22829;SDS011;11581;51.250;6.778;2023-10-09T08:15:48;8.68;;;4.38;;
22829;SDS011;11581;51.250;6.778;2023-10-09T08:18:21;11.40;;;5.15;;
22829;SDS011;11581;51.250;6.778;2023-10-09T08:20:54;7.68;;;4.75;;
22829;SDS011;11581;51.250;6.778;2023-10-09T08:23:38;7.35;;;4.35;;
22829;SDS011;11581;51.250;6.778;2023-10-09T08:26:18;13.75;;;5.38;;
22829;SDS011;11581;51.250;6.778;2023-10-09T08:28:55;12.57;;;5.53;;
22829;SDS011;11581;51.250;6.778;2023-10-09T08:31:36;7.78;;;4.35;;
22829;SDS011;11581;51.250;6.778;2023-10-09T08:34:10;12.65;;;5.18;;
22829;SDS011;11581;51.250;6.778;2023-10-09T08:36:48;9.07;;;5.15;;
22829;SDS011;11581;51.250;6.778;2023-10-09T08:39:17;13.00;;;5.05;;
22829;SDS011;11581;51.250;6.778;2023-10-09T08:41:50;8.88;;;4.72;;
22829;SDS011;11581;51.250;6.778;2023-10-09T08:44:20;17.38;;;5.28;;
22829;SDS011;11581;51.250;6.778;2023-10-09T08:46:50;12.45;;;5.28;;
22829;SDS011;11581;51.250;6.778;2023-10-09T08:49:19;10.27;;;5.20;;
22829;SDS011;11581;51.250;6.778;2023-10-09T08:51:46;11.75;;;6.05;;
22829;SDS011;11581;51.250;6.778;2023-10-09T08:54:13;9.02;;;5.22;;
22829;SDS011;11581;51.250;6.778;2023-10-09T08:56:40;10.88;;;5.18;;
22829;SDS011;11581;51.250;6.778;2023-10-09T08:59:14;10.65;;;5.47;;
22829;SDS011;11581;51.250;6.778;2023-10-09T09:01:44;10.07;;;5.13;;
22829;SDS011;11581;51.250;6.778;2023-10-09T09:07:03;11.23;;;5.53;;
22829;SDS011;11581;51.250;6.778;2023-10-09T09:09:30;10.75;;;4.80;;
22829;SDS011;11581;51.250;6.778;2023-10-09T09:11:59;12.82;;;5.97;;
22829;SDS011;11581;51.250;6.778;2023-10-09T09:14:35;13.00;;;5.38;;
22829;SDS011;11581;51.250;6.778;2023-10-09T09:17:03;10.07;;;6.35;;
22829;SDS011;11581;51.250;6.778;2023-10-09T09:19:31;8.77;;;5.10;;
22829;SDS011;11581;51.250;6.778;2023-10-09T09:22:03;10.85;;;5.47;;
22829;SDS011;11581;51.250;6.778;2023-10-09T09:24:38;10.98;;;5.43;;
22829;SDS011;11581;51.250;6.778;2023-10-09T09:27:10;12.60;;;5.45;;
22829;SDS011;11581;51.250;6.778;2023-10-09T09:29:43;10.25;;;5.13;;
22829;SDS011;11581;51.250;6.778;2023-10-09T09:34:55;9.35;;;4.80;;
22829;SDS011;11581;51.250;6.778;2023-10-09T09:37:26;12.30;;;5.90;;
22829;SDS011;11581;51.250;6.778;2023-10-09T09:39:56;10.43;;;5.53;;
22829;SDS011;11581;51.250;6.778;2023-10-09T09:42:26;10.88;;;5.18;;
22829;SDS011;11581;51.250;6.778;2023-10-09T09:44:56;10.13;;;4.82;;
22829;SDS011;11581;51.250;6.778;2023-10-09T09:47:27;8.90;;;4.68;;
22829;SDS011;11581;51.250;6.778;2023-10-09T09:49:56;9.45;;;4.72;;
22829;SDS011;11581;51.250;6.778;2023-10-09T09:52:26;9.68;;;5.45;;
22829;SDS011;11581;51.250;6.778;2023-10-09T09:55:03;9.65;;;4.63;;
22829;SDS011;11581;51.250;6.778;2023-10-09T09:57:30;8.15;;;4.63;;
22829;SDS011;11581;51.250;6.778;2023-10-09T10:00:06;7.75;;;4.20;;
22829;SDS011;11581;51.250;6.778;2023-10-09T10:02:53;7.72;;;4.80;;
22829;SDS011;11581;51.250;6.778;2023-10-09T10:05:23;8.30;;;4.38;;
22829;SDS011;11581;51.250;6.778;2023-10-09T10:07:54;9.23;;;4.57;;
22829;SDS011;11581;51.250;6.778;2023-10-09T10:10:33;10.60;;;4.90;;
22829;SDS011;11581;51.250;6.778;2023-10-09T10:13:02;7.75;;;3.90;;
22829;SDS011;11581;51.250;6.778;2023-10-09T10:18:31;8.48;;;4.47;;
22829;SDS011;11581;51.250;6.778;2023-10-09T10:21:09;11.88;;;4.45;;
22829;SDS011;11581;51.250;6.778;2023-10-09T10:23:41;8.55;;;5.00;;
22829;SDS011;11581;51.250;6.778;2023-10-09T10:26:16;11.50;;;4.82;;
22829;SDS011;11581;51.250;6.778;2023-10-09T10:28:56;8.65;;;3.95;;
22829;SDS011;11581;51.250;6.778;2023-10-09T10:31:57;12.15;;;4.43;;
22829;SDS011;11581;51.250;6.778;2023-10-09T10:34:27;14.77;;;4.40;;
22829;SDS011;11581;51.250;6.778;2023-10-09T10:37:33;6.47;;;4.00;;
22829;SDS011;11581;51.250;6.778;2023-10-09T10:40:03;6.78;;;4.50;;
22829;SDS011;11581;51.250;6.778;2023-10-09T10:42:46;9.20;;;4.40;;
22829;SDS011;11581;51.250;6.778;2023-10-09T10:45:23;9.18;;;4.78;;
22829;SDS011;11581;51.250;6.778;2023-10-09T10:47:59;11.90;;;4.68;;
22829;SDS011;11581;51.250;6.778;2023-10-09T10:50:33;9.15;;;4.88;;
22829;SDS011;11581;51.250;6.778;2023-10-09T10:53:08;7.10;;;4.55;;
22829;SDS011;11581;51.250;6.778;2023-10-09T10:55:53;9.32;;;4.07;;
22829;SDS011;11581;51.250;6.778;2023-10-09T10:58:21;8.38;;;4.18;;
22829;SDS011;11581;51.250;6.778;2023-10-09T11:01:00;7.03;;;3.97;;
22829;SDS011;11581;51.250;6.778;2023-10-09T11:03:40;8.77;;;4.90;;
22829;SDS011;11581;51.250;6.778;2023-10-09T11:06:27;8.02;;;4.28;;
22829;SDS011;11581;51.250;6.778;2023-10-09T11:09:03;12.13;;;4.18;;
22829;SDS011;11581;51.250;6.778;2023-10-09T11:11:46;7.47;;;4.32;;
22829;SDS011;11581;51.250;6.778;2023-10-09T11:14:14;6.82;;;4.15;;
22829;SDS011;11581;51.250;6.778;2023-10-09T11:16:42;5.95;;;3.90;;
22829;SDS011;11581;51.250;6.778;2023-10-09T11:19:13;12.80;;;4.10;;
22829;SDS011;11581;51.250;6.778;2023-10-09T11:21:59;9.65;;;4.55;;
22829;SDS011;11581;51.250;6.778;2023-10-09T11:24:46;8.43;;;4.45;;
22829;SDS011;11581;51.250;6.778;2023-10-09T11:27:36;8.25;;;4.07;;
22829;SDS011;11581;51.250;6.778;2023-10-09T11:30:05;7.82;;;3.75;;
22829;SDS011;11581;51.250;6.778;2023-10-09T11:32:46;7.38;;;4.03;;
22829;SDS011;11581;51.250;6.778;2023-10-09T11:35:15;10.02;;;4.32;;
22829;SDS011;11581;51.250;6.778;2023-10-09T11:37:55;11.52;;;4.68;;
22829;SDS011;11581;51.250;6.778;2023-10-09T11:40:29;10.60;;;4.32;;
22829;SDS011;11581;51.250;6.778;2023-10-09T11:43:10;7.60;;;4.18;;
22829;SDS011;11581;51.250;6.778;2023-10-09T11:45:39;7.93;;;4.32;;
22829;SDS011;11581;51.250;6.778;2023-10-09T11:48:17;7.20;;;4.50;;
22829;SDS011;11581;51.250;6.778;2023-10-09T11:50:52;8.20;;;4.22;;
22829;SDS011;11581;51.250;6.778;2023-10-09T11:53:22;7.90;;;4.30;;
22829;SDS011;11581;51.250;6.778;2023-10-09T11:56:01;9.50;;;3.65;;
22829;SDS011;11581;51.250;6.778;2023-10-09T11:58:28;7.47;;;4.05;;
22829;SDS011;11581;51.250;6.778;2023-10-09T12:00:55;12.73;;;4.82;;
22829;SDS011;11581;51.250;6.778;2023-10-09T12:03:24;9.25;;;4.60;;
22829;SDS011;11581;51.250;6.778;2023-10-09T12:05:55;7.65;;;4.10;;
22829;SDS011;11581;51.250;6.778;2023-10-09T12:08:24;7.72;;;4.22;;
22829;SDS011;11581;51.250;6.778;2023-10-09T12:10:53;6.53;;;4.15;;
22829;SDS011;11581;51.250;6.778;2023-10-09T12:13:21;9.73;;;4.47;;
22829;SDS011;11581;51.250;6.778;2023-10-09T12:15:48;7.63;;;3.92;;
22829;SDS011;11581;51.250;6.778;2023-10-09T12:18:19;8.57;;;4.10;;
22829;SDS011;11581;51.250;6.778;2023-10-09T12:20:46;8.25;;;4.40;;
22829;SDS011;11581;51.250;6.778;2023-10-09T12:23:16;8.77;;;4.30;;
22829;SDS011;11581;51.250;6.778;2023-10-09T12:25:45;6.05;;;3.45;;
22829;SDS011;11581;51.250;6.778;2023-10-09T12:28:14;6.75;;;4.03;;
22829;SDS011;11581;51.250;6.778;2023-10-09T12:30:45;8.43;;;4.25;;
22829;SDS011;11581;51.250;6.778;2023-10-09T12:33:15;8.35;;;4.18;;
22829;SDS011;11581;51.250;6.778;2023-10-09T12:35:43;11.52;;;5.63;;
22829;SDS011;11581;51.250;6.778;2023-10-09T12:38:10;9.85;;;4.15;;
22829;SDS011;11581;51.250;6.778;2023-10-09T12:40:38;8.35;;;4.00;;
22829;SDS011;11581;51.250;6.778;2023-10-09T12:43:08;9.20;;;4.10;;
22829;SDS011;11581;51.250;6.778;2023-10-09T12:45:40;7.40;;;3.55;;
22829;SDS011;11581;51.250;6.778;2023-10-09T12:48:07;8.68;;;3.90;;
22829;SDS011;11581;51.250;6.778;2023-10-09T12:50:35;9.77;;;4.00;;
22829;SDS011;11581;51.250;6.778;2023-10-09T12:53:06;8.18;;;3.83;;
22829;SDS011;11581;51.250;6.778;2023-10-09T12:55:37;5.75;;;3.83;;
22829;SDS011;11581;51.250;6.778;2023-10-09T12:58:06;7.63;;;4.13;;
22829;SDS011;11581;51.250;6.778;2023-10-09T13:00:35;9.65;;;4.10;;
22829;SDS011;11581;51.250;6.778;2023-10-09T13:03:10;10.10;;;4.93;;
22829;SDS011;11581;51.250;6.778;2023-10-09T13:05:46;8.77;;;3.97;;
22829;SDS011;11581;51.250;6.778;2023-10-09T13:08:20;7.30;;;4.32;;
22829;SDS011;11581;51.250;6.778;2023-10-09T13:10:48;10.55;;;4.45;;
22829;SDS011;11581;51.250;6.778;2023-10-09T13:13:25;8.20;;;3.92;;
22829;SDS011;11581;51.250;6.778;2023-10-09T13:16:05;6.93;;;3.33;;
22829;SDS011;11581;51.250;6.778;2023-10-09T13:18:33;9.18;;;4.00;;
22829;SDS011;11581;51.250;6.778;2023-10-09T13:20:59;10.52;;;4.35;;
22829;SDS011;11581;51.250;6.778;2023-10-09T13:23:28;7.10;;;4.03;;
22829;SDS011;11581;51.250;6.778;2023-10-09T13:26:04;8.27;;;3.60;;
22829;SDS011;11581;51.250;6.778;2023-10-09T13:28:44;7.95;;;4.22;;
22829;SDS011;11581;51.250;6.778;2023-10-09T13:31:11;9.30;;;4.50;;
22829;SDS011;11581;51.250;6.778;2023-10-09T13:33:39;8.23;;;4.30;;
22829;SDS011;11581;51.250;6.778;2023-10-09T13:36:06;10.82;;;4.80;;
22829;SDS011;11581;51.250;6.778;2023-10-09T13:38:41;6.93;;;4.22;;
22829;SDS011;11581;51.250;6.778;2023-10-09T13:41:09;7.82;;;4.35;;
22829;SDS011;11581;51.250;6.778;2023-10-09T13:43:38;9.77;;;4.50;;
22829;SDS011;11581;51.250;6.778;2023-10-09T13:46:07;7.80;;;4.30;;
22829;SDS011;11581;51.250;6.778;2023-10-09T13:48:34;10.75;;;4.93;;
22829;SDS011;11581;51.250;6.778;2023-10-09T13:51:03;9.82;;;4.57;;
22829;SDS011;11581;51.250;6.778;2023-10-09T13:53:32;12.52;;;4.28;;
22829;SDS011;11581;51.250;6.778;2023-10-09T13:56:01;6.65;;;4.70;;
22829;SDS011;11581;51.250;6.778;2023-10-09T13:58:31;7.82;;;5.13;;
22829;SDS011;11581;51.250;6.778;2023-10-09T14:00:59;9.65;;;4.70;;
22829;SDS011;11581;51.250;6.778;2023-10-09T14:03:27;7.68;;;4.40;;
22829;SDS011;11581;51.250;6.778;2023-10-09T14:05:54;10.18;;;4.95;;
22829;SDS011;11581;51.250;6.778;2023-10-09T14:08:22;8.77;;;4.30;;
22829;SDS011;11581;51.250;6.778;2023-10-09T14:10:51;9.77;;;4.90;;
22829;SDS011;11581;51.250;6.778;2023-10-09T14:13:18;13.20;;;4.57;;
22829;SDS011;11581;51.250;6.778;2023-10-09T14:15:51;9.25;;;4.43;;
22829;SDS011;11581;51.250;6.778;2023-10-09T14:18:20;10.73;;;4.28;;
22829;SDS011;11581;51.250;6.778;2023-10-09T14:20:48;9.07;;;4.97;;
22829;SDS011;11581;51.250;6.778;2023-10-09T14:25:49;7.78;;;4.68;;
22829;SDS011;11581;51.250;6.778;2023-10-09T14:28:19;9.75;;;4.85;;
22829;SDS011;11581;51.250;6.778;2023-10-09T14:30:45;7.97;;;4.53;;
22829;SDS011;11581;51.250;6.778;2023-10-09T14:33:19;10.07;;;4.77;;
22829;SDS011;11581;51.250;6.778;2023-10-09T14:35:49;10.80;;;4.38;;
22829;SDS011;11581;51.250;6.778;2023-10-09T14:38:17;9.23;;;4.75;;
22829;SDS011;11581;51.250;6.778;2023-10-09T14:40:47;10.38;;;4.78;;
22829;SDS011;11581;51.250;6.778;2023-10-09T14:43:13;7.78;;;4.53;;
22829;SDS011;11581;51.250;6.778;2023-10-09T14:45:45;11.05;;;4.38;;
22829;SDS011;11581;51.250;6.778;2023-10-09T14:48:14;8.15;;;4.45;;
22829;SDS011;11581;51.250;6.778;2023-10-09T14:50:46;11.95;;;4.97;;
22829;SDS011;11581;51.250;6.778;2023-10-09T14:53:18;12.77;;;5.03;;
22829;SDS011;11581;51.250;6.778;2023-10-09T14:55:45;8.98;;;4.88;;
22829;SDS011;11581;51.250;6.778;2023-10-09T14:58:13;14.13;;;4.88;;
22829;SDS011;11581;51.250;6.778;2023-10-09T15:00:40;8.75;;;4.50;;
22829;SDS011;11581;51.250;6.778;2023-10-09T15:03:12;8.80;;;4.95;;
22829;SDS011;11581;51.250;6.778;2023-10-09T15:05:40;10.00;;;5.63;;
22829;SDS011;11581;51.250;6.778;2023-10-09T15:08:09;8.57;;;4.53;;
22829;SDS011;11581;51.250;6.778;2023-10-09T15:10:43;8.98;;;5.05;;
22829;SDS011;11581;51.250;6.778;2023-10-09T15:13:11;8.88;;;4.90;;
22829;SDS011;11581;51.250;6.778;2023-10-09T15:15:40;14.50;;;5.53;;
22829;SDS011;11581;51.250;6.778;2023-10-09T15:18:07;8.48;;;5.22;;
22829;SDS011;11581;51.250;6.778;2023-10-09T15:20:34;8.52;;;4.93;;
22829;SDS011;11581;51.250;6.778;2023-10-09T15:23:01;8.73;;;5.18;;
22829;SDS011;11581;51.250;6.778;2023-10-09T15:25:29;9.45;;;4.60;;
22829;SDS011;11581;51.250;6.778;2023-10-09T15:27:56;12.68;;;5.07;;
22829;SDS011;11581;51.250;6.778;2023-10-09T15:30:23;6.82;;;4.50;;
22829;SDS011;11581;51.250;6.778;2023-10-09T15:32:51;12.85;;;4.90;;
22829;SDS011;11581;51.250;6.778;2023-10-09T15:35:18;11.68;;;5.43;;
22829;SDS011;11581;51.250;6.778;2023-10-09T15:37:45;10.43;;;5.82;;
22829;SDS011;11581;51.250;6.778;2023-10-09T15:40:12;6.93;;;4.60;;
22829;SDS011;11581;51.250;6.778;2023-10-09T15:42:42;12.45;;;6.22;;